Wetterdaten: Woche 07.10.02 - 13.10.02 (KW41)
Datum Zeit Temperatur Luftfeuchte Luftdruck Regenmenge Wind Richtung Taupunkt Windchill
07.10.2002 00:00 9.4 C 100 % 1014.5 hPa 0.3 l/m 2.9 km/h (1 Bft) NO 9.4 C 9.2 C
07.10.2002 01:00 9.2 C 97 % 1014.9 hPa 0.0 l/m 0.4 km/h (0 Bft) N 8.8 C 9.2 C
07.10.2002 02:00 8.8 C 96 % 1015.0 hPa 0.0 l/m 0.6 km/h (0 Bft) N-NO 8.2 C 8.7 C
07.10.2002 03:00 8.7 C 97 % 1015.4 hPa 0.0 l/m 0.0 km/h (0 Bft) N 8.2 C 8.7 C
07.10.2002 04:00 8.8 C 99 % 1015.9 hPa 0.0 l/m 0.1 km/h (0 Bft) N 8.6 C 8.8 C
07.10.2002 05:00 8.5 C 99 % 1015.9 hPa 0.0 l/m 0.0 km/h (0 Bft) N 8.3 C 8.5 C
07.10.2002 06:00 8.3 C 98 % 1015.9 hPa 0.0 l/m 0.3 km/h (0 Bft) O-SO 8.1 C 8.3 C
07.10.2002 07:00 8.0 C 97 % 1015.9 hPa 0.0 l/m 1.5 km/h (1 Bft) NO 7.6 C 7.9 C
07.10.2002 08:00 7.9 C 96 % 1016.8 hPa 0.0 l/m 1.1 km/h (1 Bft) O-SO 7.3 C 7.7 C
07.10.2002 09:00 8.1 C 95 % 1017.0 hPa 0.0 l/m 0.2 km/h (0 Bft) O 7.4 C 8.1 C
07.10.2002 10:00 8.9 C 90 % 1017.0 hPa 0.0 l/m 0.2 km/h (0 Bft) N 7.4 C 8.9 C
07.10.2002 11:00 10.4 C 80 % 1017.0 hPa 0.0 l/m 0.5 km/h (0 Bft) O-NO 7.2 C 10.4 C
07.10.2002 12:00 11.9 C 67 % 1016.7 hPa 0.0 l/m 9.9 km/h (2 Bft) O-SO 6.0 C 11.9 C
07.10.2002 13:00 12.5 C 63 % 1015.9 hPa 0.0 l/m 11.3 km/h (2 Bft) O-SO 5.6 C 12.5 C
07.10.2002 14:00 12.7 C 59 % 1015.7 hPa 0.0 l/m 8.3 km/h (2 Bft) O-SO 4.9 C 12.7 C
07.10.2002 15:00 13.5 C 54 % 1014.9 hPa 0.0 l/m 5.0 km/h (1 Bft) O-SO 4.2 C 13.5 C
07.10.2002 16:00 14.0 C 55 % 1014.9 hPa 0.0 l/m 8.6 km/h (2 Bft) O-SO 5.0 C 14.0 C
07.10.2002 17:00 13.1 C 55 % 1014.9 hPa 0.0 l/m 5.3 km/h (1 Bft) O-SO 4.3 C 13.1 C
07.10.2002 18:00 10.5 C 67 % 1014.9 hPa 0.0 l/m 1.9 km/h (1 Bft) O-SO 4.6 C 10.5 C
07.10.2002 19:00 8.8 C 80 % 1014.9 hPa 0.0 l/m 5.7 km/h (1 Bft) O-SO 5.5 C 8.0 C
07.10.2002 20:00 7.7 C 86 % 1014.9 hPa 0.0 l/m 6.4 km/h (2 Bft) O-SO 5.6 C 6.7 C
07.10.2002 21:00 6.3 C 93 % 1014.9 hPa 0.0 l/m 2.6 km/h (1 Bft) O-SO 5.2 C 6.1 C
07.10.2002 22:00 5.5 C 96 % 1014.9 hPa 0.0 l/m 0.1 km/h (0 Bft) N 4.9 C 5.5 C
07.10.2002 23:00 5.0 C 97 % 1014.9 hPa 0.0 l/m 0.3 km/h (0 Bft) O-SO 4.6 C 4.9 C
08.10.2002 00:00 4.7 C 98 % 1014.1 hPa 0.0 l/m 0.0 km/h (0 Bft) N 4.4 C 4.7 C
08.10.2002 01:00 4.2 C 99 % 1013.9 hPa 0.0 l/m 0.7 km/h (0 Bft) O-SO 4.1 C 4.2 C
08.10.2002 02:00 4.1 C 99 % 1013.9 hPa 0.0 l/m 0.0 km/h (0 Bft) N 4.0 C 4.1 C
08.10.2002 03:00 4.8 C 100 % 1013.8 hPa 0.0 l/m 0.0 km/h (0 Bft) N 4.8 C 4.8 C
08.10.2002 04:00 4.3 C 100 % 1013.1 hPa 0.0 l/m 0.0 km/h (0 Bft) N 4.3 C 4.3 C
08.10.2002 05:00 3.6 C 100 % 1012.8 hPa 0.0 l/m 1.7 km/h (1 Bft) O-SO 3.6 C 3.3 C
08.10.2002 06:00 3.5 C 100 % 1012.8 hPa 0.0 l/m 0.5 km/h (0 Bft) O-SO 3.5 C 3.5 C
08.10.2002 07:00 3.8 C 100 % 1012.8 hPa 0.0 l/m 0.0 km/h (0 Bft) N 3.8 C 3.8 C
08.10.2002 08:00 4.0 C 100 % 1012.8 hPa 0.0 l/m 0.4 km/h (0 Bft) O-SO 4.0 C 3.9 C
08.10.2002 09:00 4.9 C 100 % 1012.8 hPa 0.0 l/m 4.2 km/h (1 Bft) O-SO 4.9 C 4.1 C
08.10.2002 10:00 6.5 C 96 % 1012.8 hPa 0.0 l/m 9.5 km/h (2 Bft) O-SO 5.9 C 4.6 C
08.10.2002 11:00 7.8 C 83 % 1012.8 hPa 0.0 l/m 15.9 km/h (3 Bft) O-SO 5.2 C 5.2 C
08.10.2002 12:00 9.4 C 76 % 1012.7 hPa 0.0 l/m 17.3 km/h (3 Bft) O-SO 5.3 C 7.4 C
08.10.2002 13:00 11.6 C 67 % 1011.7 hPa 0.0 l/m 15.5 km/h (3 Bft) O-SO 5.6 C 11.6 C
08.10.2002 14:00 13.2 C 61 % 1011.0 hPa 0.0 l/m 14.1 km/h (3 Bft) O-SO 5.8 C 13.2 C
08.10.2002 15:00 13.7 C 59 % 1010.8 hPa 0.0 l/m 13.4 km/h (3 Bft) O-SO 5.8 C 13.7 C
08.10.2002 16:00 13.6 C 56 % 1010.0 hPa 0.0 l/m 12.4 km/h (3 Bft) O-SO 5.0 C 13.6 C
08.10.2002 17:00 12.7 C 59 % 1009.7 hPa 0.0 l/m 7.8 km/h (2 Bft) O-SO 5.0 C 12.7 C
08.10.2002 18:00 10.6 C 72 % 1009.7 hPa 0.0 l/m 0.4 km/h (0 Bft) O-SO 5.6 C 10.6 C
08.10.2002 19:00 8.7 C 83 % 1010.2 hPa 0.0 l/m 0.4 km/h (0 Bft) O-SO 5.9 C 8.7 C
08.10.2002 20:00 7.9 C 87 % 1010.8 hPa 0.0 l/m 0.0 km/h (0 Bft) N 5.9 C 7.9 C
08.10.2002 21:00 7.3 C 93 % 1010.8 hPa 0.0 l/m 0.0 km/h (0 Bft) N 6.2 C 7.3 C
08.10.2002 22:00 7.2 C 85 % 1010.8 hPa 0.0 l/m 0.0 km/h (0 Bft) N 4.9 C 7.2 C
08.10.2002 23:00 7.1 C 83 % 1010.8 hPa 0.0 l/m 0.1 km/h (0 Bft) N 4.4 C 7.1 C
09.10.2002 00:00 6.4 C 86 % 1010.4 hPa 0.0 l/m 0.9 km/h (0 Bft) O 4.2 C 6.4 C
09.10.2002 01:00 5.2 C 92 % 1009.9 hPa 0.0 l/m 0.6 km/h (0 Bft) O-SO 4.1 C 5.2 C
09.10.2002 02:00 4.6 C 95 % 1010.1 hPa 0.0 l/m 1.2 km/h (1 Bft) O-SO 4.0 C 4.6 C
09.10.2002 03:00 4.3 C 97 % 1009.7 hPa 0.0 l/m 1.7 km/h (1 Bft) O-SO 3.8 C 4.1 C
09.10.2002 04:00 3.8 C 98 % 1009.7 hPa 0.0 l/m 3.2 km/h (1 Bft) O-SO 3.5 C 3.2 C
09.10.2002 05:00 4.3 C 98 % 1009.7 hPa 0.0 l/m 1.9 km/h (1 Bft) O-SO 4.0 C 3.9 C
09.10.2002 06:00 5.1 C 95 % 1009.6 hPa 0.0 l/m 0.0 km/h (0 Bft) N 4.4 C 5.1 C
09.10.2002 07:00 5.4 C 92 % 1008.7 hPa 0.0 l/m 0.2 km/h (0 Bft) N 4.3 C 5.4 C
09.10.2002 08:00 5.6 C 90 % 1009.4 hPa 0.0 l/m 0.7 km/h (0 Bft) NO 4.1 C 5.6 C
09.10.2002 09:00 5.9 C 88 % 1009.6 hPa 0.0 l/m 1.6 km/h (1 Bft) NO 4.1 C 5.8 C
09.10.2002 10:00 6.2 C 87 % 1009.7 hPa 0.0 l/m 2.0 km/h (1 Bft) O-NO 4.2 C 6.0 C
09.10.2002 11:00 6.7 C 84 % 1009.3 hPa 0.0 l/m 1.8 km/h (1 Bft) O-NO 4.3 C 6.5 C
09.10.2002 12:00 7.3 C 81 % 1008.8 hPa 0.0 l/m 10.0 km/h (2 Bft) O-SO 4.3 C 5.6 C
09.10.2002 13:00 7.9 C 79 % 1008.5 hPa 0.0 l/m 13.3 km/h (3 Bft) O-SO 4.5 C 5.8 C
09.10.2002 14:00 9.2 C 74 % 1007.7 hPa 0.0 l/m 17.3 km/h (3 Bft) O-SO 4.8 C 7.0 C
09.10.2002 15:00 9.0 C 74 % 1007.3 hPa 0.0 l/m 16.6 km/h (3 Bft) O-SO 4.6 C 6.5 C
09.10.2002 16:00 9.4 C 73 % 1006.6 hPa 0.0 l/m 12.8 km/h (3 Bft) O-SO 4.7 C 7.7 C
09.10.2002 17:00 10.7 C 69 % 1006.6 hPa 0.0 l/m 13.0 km/h (3 Bft) O-SO 5.2 C 10.1 C
09.10.2002 18:00 9.0 C 78 % 1006.4 hPa 0.0 l/m 8.7 km/h (2 Bft) O-SO 5.4 C 7.7 C
09.10.2002 19:00 7.8 C 84 % 1006.6 hPa 0.0 l/m 12.8 km/h (3 Bft) O-SO 5.3 C 5.7 C
09.10.2002 20:00 6.9 C 86 % 1006.6 hPa 0.0 l/m 5.1 km/h (1 Bft) O-SO 4.7 C 6.0 C
09.10.2002 21:00 5.8 C 92 % 1006.0 hPa 0.0 l/m 0.7 km/h (0 Bft) O-SO 4.6 C 5.8 C
09.10.2002 22:00 5.7 C 95 % 1005.6 hPa 0.0 l/m 0.9 km/h (0 Bft) O 5.0 C 5.6 C
09.10.2002 23:00 5.7 C 96 % 1005.6 hPa 0.0 l/m 0.0 km/h (0 Bft) N 5.1 C 5.7 C
10.10.2002 00:00 5.1 C 97 % 1005.6 hPa 0.0 l/m 0.0 km/h (0 Bft) N 4.6 C 5.1 C
10.10.2002 01:00 5.7 C 98 % 1005.3 hPa 0.0 l/m 0.0 km/h (0 Bft) N 5.4 C 5.7 C
10.10.2002 02:00 6.3 C 98 % 1004.5 hPa 0.0 l/m 3.6 km/h (1 Bft) O-SO 5.9 C 5.6 C
10.10.2002 03:00 6.0 C 97 % 1004.5 hPa 0.0 l/m 6.5 km/h (2 Bft) O-SO 5.5 C 4.8 C
10.10.2002 04:00 6.0 C 97 % 1004.5 hPa 0.0 l/m 7.6 km/h (2 Bft) O-SO 5.5 C 4.4 C
10.10.2002 05:00 6.2 C 95 % 1004.5 hPa 0.0 l/m 2.3 km/h (1 Bft) O 5.4 C 5.9 C
10.10.2002 06:00 6.9 C 89 % 1004.5 hPa 0.0 l/m 2.6 km/h (1 Bft) O 5.2 C 6.6 C
10.10.2002 07:00 6.9 C 88 % 1004.5 hPa 0.0 l/m 2.3 km/h (1 Bft) O-NO 5.1 C 6.6 C
10.10.2002 08:00 7.0 C 87 % 1005.5 hPa 0.0 l/m 3.3 km/h (1 Bft) O 5.0 C 6.4 C
10.10.2002 09:00 7.5 C 85 % 1005.6 hPa 0.0 l/m 2.3 km/h (1 Bft) O 5.1 C 7.2 C
10.10.2002 10:00 7.9 C 83 % 1005.6 hPa 0.0 l/m 6.2 km/h (2 Bft) O-SO 5.2 C 7.0 C
10.10.2002 11:00 9.1 C 78 % 1005.5 hPa 0.0 l/m 12.9 km/h (3 Bft) O-SO 5.5 C 7.2 C
10.10.2002 12:00 9.8 C 75 % 1004.6 hPa 0.0 l/m 22.1 km/h (4 Bft) O-SO 5.5 C 7.4 C
10.10.2002 13:00 10.6 C 72 % 1004.5 hPa 0.0 l/m 24.9 km/h (4 Bft) O-SO 5.8 C 10.6 C
10.10.2002 14:00 11.7 C 69 % 1004.2 hPa 0.0 l/m 22.9 km/h (4 Bft) O-SO 6.3 C 11.7 C
10.10.2002 15:00 11.8 C 70 % 1004.5 hPa 0.0 l/m 21.7 km/h (4 Bft) O-SO 6.5 C 11.8 C
10.10.2002 16:00 11.1 C 70 % 1004.5 hPa 0.0 l/m 20.5 km/h (4 Bft) O-SO 5.8 C 10.9 C
10.10.2002 17:00 9.7 C 76 % 1005.3 hPa 0.0 l/m 11.3 km/h (2 Bft) O-SO 5.6 C 8.4 C
10.10.2002 18:00 9.0 C 78 % 1005.6 hPa 0.0 l/m 14.0 km/h (3 Bft) O-SO 5.4 C 6.9 C
10.10.2002 19:00 8.6 C 79 % 1006.6 hPa 0.0 l/m 8.7 km/h (2 Bft) O-SO 5.2 C 7.2 C
10.10.2002 20:00 8.5 C 80 % 1006.6 hPa 0.0 l/m 0.9 km/h (0 Bft) O 5.2 C 8.4 C
10.10.2002 21:00 8.4 C 80 % 1006.6 hPa 0.0 l/m 0.7 km/h (0 Bft) N-NO 5.2 C 8.4 C
10.10.2002 22:00 8.3 C 81 % 1006.6 hPa 0.0 l/m 0.0 km/h (0 Bft) N 5.3 C 8.3 C
10.10.2002 23:00 8.3 C 82 % 1006.6 hPa 0.0 l/m 0.2 km/h (0 Bft) N 5.4 C 8.3 C
11.10.2002 00:00 8.3 C 83 % 1007.2 hPa 0.0 l/m 0.1 km/h (0 Bft) N 5.5 C 8.3 C
11.10.2002 01:00 8.2 C 84 % 1007.7 hPa 0.0 l/m 0.7 km/h (0 Bft) O 5.7 C 8.2 C
11.10.2002 02:00 8.0 C 88 % 1007.7 hPa 0.0 l/m 0.0 km/h (0 Bft) N 6.1 C 8.0 C
11.10.2002 03:00 8.1 C 91 % 1007.5 hPa 0.0 l/m 0.0 km/h (0 Bft) N 6.6 C 8.1 C
11.10.2002 04:00 8.1 C 91 % 1007.7 hPa 0.0 l/m 0.0 km/h (0 Bft) N 6.8 C 8.1 C
11.10.2002 05:00 8.1 C 93 % 1007.7 hPa 0.0 l/m 0.0 km/h (0 Bft) N 7.0 C 8.1 C
11.10.2002 06:00 8.1 C 94 % 1007.7 hPa 0.0 l/m 0.0 km/h (0 Bft) N 7.2 C 8.1 C
11.10.2002 07:00 8.2 C 94 % 1007.7 hPa 0.0 l/m 0.0 km/h (0 Bft) N 7.3 C 8.2 C
11.10.2002 08:00 8.5 C 93 % 1007.7 hPa 0.0 l/m 0.1 km/h (0 Bft) N 7.4 C 8.5 C
11.10.2002 09:00 9.0 C 89 % 1008.1 hPa 0.0 l/m 0.2 km/h (0 Bft) O-SO 7.3 C 9.0 C
11.10.2002 10:00 9.4 C 88 % 1008.6 hPa 0.0 l/m 0.4 km/h (0 Bft) O 7.4 C 9.4 C
11.10.2002 11:00 9.7 C 86 % 1008.7 hPa 0.0 l/m 1.8 km/h (1 Bft) O-SO 7.5 C 9.5 C
11.10.2002 12:00 10.1 C 83 % 1008.3 hPa 0.0 l/m 1.8 km/h (1 Bft) O-NO 7.3 C 10.1 C
11.10.2002 13:00 10.6 C 80 % 1008.4 hPa 0.0 l/m 13.3 km/h (3 Bft) O-SO 7.3 C 10.6 C
11.10.2002 14:00 11.4 C 75 % 1007.7 hPa 0.0 l/m 1.1 km/h (1 Bft) O 7.2 C 11.4 C
11.10.2002 15:00 11.7 C 73 % 1007.7 hPa 0.0 l/m 1.7 km/h (1 Bft) O 7.0 C 11.7 C
11.10.2002 16:00 11.1 C 76 % 1008.1 hPa 0.0 l/m 1.1 km/h (1 Bft) O-NO 6.9 C 11.1 C
11.10.2002 17:00 10.5 C 76 % 1008.7 hPa 0.0 l/m 2.9 km/h (1 Bft) O-NO 6.5 C 10.5 C
11.10.2002 18:00 9.9 C 79 % 1008.7 hPa 0.0 l/m 3.0 km/h (1 Bft) O-NO 6.4 C 9.9 C
11.10.2002 19:00 9.5 C 83 % 1009.5 hPa 0.0 l/m 0.8 km/h (0 Bft) NO 6.8 C 9.5 C
11.10.2002 20:00 9.3 C 86 % 1009.7 hPa 0.0 l/m 0.2 km/h (0 Bft) N 7.1 C 9.3 C
11.10.2002 21:00 9.2 C 85 % 1009.7 hPa 0.0 l/m 0.5 km/h (0 Bft) O-NO 6.8 C 9.2 C
11.10.2002 22:00 9.0 C 86 % 1009.7 hPa 0.0 l/m 0.1 km/h (0 Bft) N 6.7 C 9.0 C
11.10.2002 23:00 9.0 C 87 % 1009.7 hPa 0.0 l/m 0.4 km/h (0 Bft) SO 6.9 C 9.0 C
12.10.2002 00:00 8.9 C 90 % 1009.7 hPa 0.0 l/m 0.1 km/h (0 Bft) SO 7.4 C 8.9 C
12.10.2002 01:00 8.7 C 92 % 1009.7 hPa 0.0 l/m 0.0 km/h (0 Bft) N 7.5 C 8.7 C
12.10.2002 02:00 8.6 C 93 % 1009.7 hPa 0.0 l/m 0.1 km/h (0 Bft) N 7.5 C 8.6 C
12.10.2002 03:00 8.7 C 91 % 1009.3 hPa 0.0 l/m 0.0 km/h (0 Bft) N 7.4 C 8.7 C
12.10.2002 04:00 8.6 C 92 % 1009.7 hPa 0.0 l/m 0.0 km/h (0 Bft) N 7.4 C 8.6 C
12.10.2002 05:00 8.5 C 94 % 1009.7 hPa 0.0 l/m 0.0 km/h (0 Bft) N 7.7 C 8.5 C
12.10.2002 06:00 8.4 C 97 % 1009.7 hPa 0.0 l/m 0.0 km/h (0 Bft) N 8.0 C 8.4 C
12.10.2002 07:00 8.5 C 97 % 1009.7 hPa 0.0 l/m 0.0 km/h (0 Bft) N 8.1 C 8.5 C
12.10.2002 08:00 8.6 C 97 % 1009.7 hPa 0.0 l/m 0.0 km/h (0 Bft) N 8.1 C 8.6 C
12.10.2002 09:00 8.8 C 96 % 1009.7 hPa 0.0 l/m 0.3 km/h (0 Bft) W-NW 8.2 C 8.8 C
12.10.2002 10:00 9.1 C 92 % 1009.7 hPa 0.0 l/m 0.6 km/h (0 Bft) W-NW 7.8 C 9.0 C
12.10.2002 11:00 9.4 C 90 % 1010.8 hPa 0.0 l/m 0.1 km/h (0 Bft) O-SO 7.9 C 9.4 C
12.10.2002 12:00 10.0 C 86 % 1010.8 hPa 0.0 l/m 4.7 km/h (1 Bft) O-SO 7.8 C 9.5 C
12.10.2002 13:00 10.5 C 77 % 1010.8 hPa 0.0 l/m 3.3 km/h (1 Bft) W-NW 6.6 C 10.5 C
12.10.2002 14:00 10.2 C 77 % 1010.8 hPa 0.0 l/m 7.6 km/h (2 Bft) W-NW 6.4 C 10.1 C
12.10.2002 15:00 10.5 C 75 % 1010.8 hPa 0.0 l/m 8.0 km/h (2 Bft) NW 6.3 C 10.5 C
12.10.2002 16:00 11.8 C 68 % 1010.8 hPa 0.0 l/m 10.7 km/h (2 Bft) NW 6.2 C 11.8 C
12.10.2002 17:00 11.5 C 74 % 1010.8 hPa 0.0 l/m 6.7 km/h (2 Bft) NW 7.0 C 11.5 C
12.10.2002 18:00 8.9 C 85 % 1010.8 hPa 0.0 l/m 0.1 km/h (0 Bft) N 6.5 C 8.9 C
12.10.2002 19:00 8.5 C 87 % 1011.7 hPa 0.0 l/m 0.1 km/h (0 Bft) N 6.5 C 8.5 C
12.10.2002 20:00 9.1 C 82 % 1011.8 hPa 0.0 l/m 1.1 km/h (1 Bft) O-SO 6.1 C 8.9 C
12.10.2002 21:00 9.6 C 80 % 1012.2 hPa 0.0 l/m 0.3 km/h (0 Bft) N 6.4 C 9.6 C
12.10.2002 22:00 9.7 C 85 % 1012.8 hPa 0.0 l/m 3.3 km/h (1 Bft) W-NW 7.3 C 9.3 C
12.10.2002 23:00 9.5 C 89 % 1012.8 hPa 0.0 l/m 0.2 km/h (0 Bft) SO 7.8 C 9.5 C
13.10.2002 00:00 9.8 C 90 % 1012.8 hPa 0.0 l/m 5.4 km/h (1 Bft) W-NW 8.2 C 9.2 C
13.10.2002 01:00 10.1 C 88 % 1012.8 hPa 0.0 l/m 1.4 km/h (1 Bft) W-NW 8.1 C 10.1 C
13.10.2002 02:00 10.2 C 85 % 1012.8 hPa 0.0 l/m 8.3 km/h (2 Bft) NW 7.8 C 10.2 C
13.10.2002 03:00 10.0 C 83 % 1012.8 hPa 0.0 l/m 7.9 km/h (2 Bft) W-NW 7.3 C 9.7 C
13.10.2002 04:00 9.6 C 83 % 1012.8 hPa 0.0 l/m 4.4 km/h (1 Bft) NW 7.0 C 9.2 C
13.10.2002 05:00 9.1 C 88 % 1012.8 hPa 0.0 l/m 2.7 km/h (1 Bft) W 7.2 C 8.9 C
13.10.2002 06:00 9.1 C 89 % 1013.4 hPa 0.0 l/m 6.1 km/h (2 Bft) W-NW 7.4 C 8.4 C
13.10.2002 07:00 7.6 C 91 % 1013.9 hPa 0.0 l/m 0.4 km/h (0 Bft) S 6.3 C 7.6 C
13.10.2002 08:00 8.4 C 88 % 1013.9 hPa 0.0 l/m 3.7 km/h (1 Bft) W-NW 6.6 C 8.0 C
13.10.2002 09:00 9.1 C 79 % 1013.9 hPa 0.0 l/m 4.5 km/h (1 Bft) W-NW 5.7 C 8.6 C
13.10.2002 10:00 9.6 C 75 % 1013.9 hPa 0.0 l/m 8.8 km/h (2 Bft) W-NW 5.3 C 8.4 C
13.10.2002 11:00 10.5 C 70 % 1013.8 hPa 0.0 l/m 8.3 km/h (2 Bft) W-NW 5.2 C 10.3 C
13.10.2002 12:00 11.9 C 60 % 1012.8 hPa 0.0 l/m 13.8 km/h (3 Bft) W-NW 4.4 C 11.9 C
13.10.2002 13:00 12.9 C 50 % 1012.5 hPa 0.0 l/m 10.3 km/h (2 Bft) NW 2.7 C 12.9 C
13.10.2002 14:00 14.1 C 46 % 1011.9 hPa 0.0 l/m 4.3 km/h (1 Bft) W-NW 2.7 C 14.1 C
13.10.2002 15:00 14.8 C 48 % 1010.9 hPa 0.0 l/m 2.5 km/h (1 Bft) W-NW 4.0 C 14.8 C
13.10.2002 16:00 14.8 C 51 % 1010.8 hPa 0.0 l/m 1.8 km/h (1 Bft) O-SO 4.8 C 14.8 C
13.10.2002 17:00 14.0 C 54 % 1010.8 hPa 0.0 l/m 0.0 km/h (0 Bft) N 4.8 C 14.0 C
13.10.2002 18:00 12.0 C 65 % 1010.8 hPa 0.0 l/m 2.4 km/h (1 Bft) O-SO 5.5 C 12.0 C
13.10.2002 19:00 9.3 C 78 % 1010.9 hPa 0.0 l/m 3.9 km/h (1 Bft) O-SO 5.6 C 9.1 C
13.10.2002 20:00 7.6 C 85 % 1011.4 hPa 0.0 l/m 2.5 km/h (1 Bft) O-SO 5.2 C 7.3 C
13.10.2002 21:00 7.1 C 88 % 1011.8 hPa 0.0 l/m 1.8 km/h (1 Bft) O-SO 5.3 C 6.8 C
13.10.2002 22:00 7.1 C 90 % 1011.4 hPa 0.0 l/m 0.1 km/h (0 Bft) O-SO 5.7 C 7.1 C
13.10.2002 23:00 7.7 C 92 % 1011.8 hPa 0.0 l/m 0.2 km/h (0 Bft) O-SO 6.5 C 7.7 C
Min-Datum _ 08.10.02 13.10.02 10.10.02 - 07.10.02 - 13.10.02 08.10.02
_ Min-Zeit 06:25 13:57 14:18 - 00:11 - 13:57 05:37
Minimum _ 3.2 C 43 % 1003.5 hPa - 0.0 km/h (0 Bft) - 0.9 C 1.0 C
Max-Datum _ 13.10.02 07.10.02 07.10.02 07.10.02 10.10.02 - 07.10.02 13.10.02
_ Max-Zeit 15:18 00:00 08:12 00:21 15:18 - 00:00 15:18
Maximum _ 15.3 C 100 % 1017.0 hPa 0.3 l/m 49.3 km/h
O-SO (6 Bft)
- 9.7 C 15.3 C
Durchschnitt _ 8.7 C 84 % 1010.3 hPa #0.3 l/m 4.1 km/h (1 Bft) O-SO 5.9 C 8.4 C

Durchschnitt Minimum Temp.8.2 C
Durchschnitt Maximum Temp.9.2 C
© Kaiko 2002